sensor_id;sensor_type;location;lat;lon;timestamp;P1;durP1;ratioP1;P2;durP2;ratioP2
4980;SDS011;2507;50.392;7.482;2022-08-04T00:00:11;3.70;;;3.40;;
4980;SDS011;2507;50.392;7.482;2022-08-04T00:05:51;3.80;;;3.50;;
4980;SDS011;2507;50.392;7.482;2022-08-04T00:10:57;3.77;;;3.47;;
4980;SDS011;2507;50.392;7.482;2022-08-04T00:13:25;5.60;;;4.33;;
4980;SDS011;2507;50.392;7.482;2022-08-04T00:15:53;4.37;;;3.70;;
4980;SDS011;2507;50.392;7.482;2022-08-04T00:18:25;6.60;;;3.70;;
4980;SDS011;2507;50.392;7.482;2022-08-04T00:20:58;3.60;;;3.40;;
4980;SDS011;2507;50.392;7.482;2022-08-04T00:23:27;9.97;;;4.17;;
4980;SDS011;2507;50.392;7.482;2022-08-04T00:25:54;5.07;;;4.60;;
4980;SDS011;2507;50.392;7.482;2022-08-04T00:28:20;5.90;;;4.00;;
4980;SDS011;2507;50.392;7.482;2022-08-04T00:30:45;5.53;;;4.20;;
4980;SDS011;2507;50.392;7.482;2022-08-04T00:33:14;4.90;;;3.87;;
4980;SDS011;2507;50.392;7.482;2022-08-04T00:35:43;3.73;;;3.47;;
4980;SDS011;2507;50.392;7.482;2022-08-04T00:38:10;3.67;;;3.40;;
4980;SDS011;2507;50.392;7.482;2022-08-04T00:43:33;3.50;;;3.20;;
4980;SDS011;2507;50.392;7.482;2022-08-04T00:48:55;5.53;;;3.73;;
4980;SDS011;2507;50.392;7.482;2022-08-04T01:00:21;7.10;;;3.20;;
4980;SDS011;2507;50.392;7.482;2022-08-04T01:05:30;4.07;;;3.70;;
4980;SDS011;2507;50.392;7.482;2022-08-04T01:08:09;5.50;;;3.80;;
4980;SDS011;2507;50.392;7.482;2022-08-04T01:16:21;6.00;;;3.70;;
4980;SDS011;2507;50.392;7.482;2022-08-04T01:29:33;8.80;;;3.57;;
4980;SDS011;2507;50.392;7.482;2022-08-04T01:32:03;4.03;;;3.73;;
4980;SDS011;2507;50.392;7.482;2022-08-04T01:34:41;5.80;;;4.13;;
4980;SDS011;2507;50.392;7.482;2022-08-04T01:37:17;7.13;;;4.53;;
4980;SDS011;2507;50.392;7.482;2022-08-04T01:40:03;5.30;;;4.17;;
4980;SDS011;2507;50.392;7.482;2022-08-04T01:42:31;5.30;;;4.47;;
4980;SDS011;2507;50.392;7.482;2022-08-04T01:44:59;4.43;;;4.13;;
4980;SDS011;2507;50.392;7.482;2022-08-04T01:47:28;3.90;;;3.60;;
4980;SDS011;2507;50.392;7.482;2022-08-04T01:49:54;4.50;;;4.10;;
4980;SDS011;2507;50.392;7.482;2022-08-04T01:52:28;8.20;;;4.30;;
4980;SDS011;2507;50.392;7.482;2022-08-04T01:54:56;4.83;;;4.43;;
4980;SDS011;2507;50.392;7.482;2022-08-04T01:57:21;4.20;;;3.90;;
4980;SDS011;2507;50.392;7.482;2022-08-04T01:59:49;4.60;;;4.20;;
4980;SDS011;2507;50.392;7.482;2022-08-04T02:02:17;3.90;;;3.50;;
4980;SDS011;2507;50.392;7.482;2022-08-04T02:04:42;8.30;;;4.50;;
4980;SDS011;2507;50.392;7.482;2022-08-04T02:12:28;4.20;;;3.80;;
4980;SDS011;2507;50.392;7.482;2022-08-04T02:15:21;4.93;;;4.10;;
4980;SDS011;2507;50.392;7.482;2022-08-04T02:17:59;4.20;;;3.83;;
4980;SDS011;2507;50.392;7.482;2022-08-04T02:20:33;4.63;;;4.20;;
4980;SDS011;2507;50.392;7.482;2022-08-04T02:23:09;4.40;;;4.00;;
4980;SDS011;2507;50.392;7.482;2022-08-04T02:25:40;4.50;;;4.20;;
4980;SDS011;2507;50.392;7.482;2022-08-04T02:30:42;4.90;;;4.50;;
4980;SDS011;2507;50.392;7.482;2022-08-04T02:33:16;7.83;;;4.57;;
4980;SDS011;2507;50.392;7.482;2022-08-04T02:35:47;7.20;;;4.80;;
4980;SDS011;2507;50.392;7.482;2022-08-04T02:38:26;4.97;;;4.53;;
4980;SDS011;2507;50.392;7.482;2022-08-04T02:40:54;5.17;;;4.67;;
4980;SDS011;2507;50.392;7.482;2022-08-04T02:43:24;5.30;;;4.90;;
4980;SDS011;2507;50.392;7.482;2022-08-04T02:45:50;5.73;;;4.47;;
4980;SDS011;2507;50.392;7.482;2022-08-04T02:48:21;4.67;;;4.37;;
4980;SDS011;2507;50.392;7.482;2022-08-04T02:50:48;3.90;;;3.70;;
4980;SDS011;2507;50.392;7.482;2022-08-04T02:53:17;4.77;;;4.33;;
4980;SDS011;2507;50.392;7.482;2022-08-04T02:55:45;7.07;;;5.13;;
4980;SDS011;2507;50.392;7.482;2022-08-04T02:58:12;5.30;;;4.90;;
4980;SDS011;2507;50.392;7.482;2022-08-04T03:00:40;5.43;;;4.93;;
4980;SDS011;2507;50.392;7.482;2022-08-04T03:14:03;9.13;;;5.97;;
4980;SDS011;2507;50.392;7.482;2022-08-04T03:16:53;5.37;;;4.87;;
4980;SDS011;2507;50.392;7.482;2022-08-04T03:27:54;9.63;;;5.30;;
4980;SDS011;2507;50.392;7.482;2022-08-04T03:30:31;5.27;;;4.97;;
4980;SDS011;2507;50.392;7.482;2022-08-04T03:35:55;5.30;;;4.80;;
4980;SDS011;2507;50.392;7.482;2022-08-04T03:44:09;9.73;;;5.40;;
4980;SDS011;2507;50.392;7.482;2022-08-04T04:06:27;7.13;;;5.63;;
4980;SDS011;2507;50.392;7.482;2022-08-04T04:09:25;5.37;;;5.00;;
4980;SDS011;2507;50.392;7.482;2022-08-04T04:15:13;5.30;;;4.90;;
4980;SDS011;2507;50.392;7.482;2022-08-04T04:17:58;5.43;;;5.00;;
4980;SDS011;2507;50.392;7.482;2022-08-04T04:21:35;5.40;;;5.00;;
4980;SDS011;2507;50.392;7.482;2022-08-04T04:23:47;5.20;;;4.70;;
4980;SDS011;2507;50.392;7.482;2022-08-04T04:29:29;7.30;;;5.63;;
4980;SDS011;2507;50.392;7.482;2022-08-04T04:34:49;5.40;;;4.90;;
4980;SDS011;2507;50.392;7.482;2022-08-04T04:40:07;7.17;;;4.63;;
4980;SDS011;2507;50.392;7.482;2022-08-04T04:45:40;12.63;;;5.20;;
4980;SDS011;2507;50.392;7.482;2022-08-04T04:51:22;7.63;;;4.37;;
4980;SDS011;2507;50.392;7.482;2022-08-04T04:54:10;8.40;;;5.00;;
4980;SDS011;2507;50.392;7.482;2022-08-04T04:56:46;9.23;;;5.43;;
4980;SDS011;2507;50.392;7.482;2022-08-04T04:59:15;5.60;;;5.20;;
4980;SDS011;2507;50.392;7.482;2022-08-04T05:04:54;6.30;;;4.70;;
4980;SDS011;2507;50.392;7.482;2022-08-04T05:13:19;6.40;;;4.23;;
4980;SDS011;2507;50.392;7.482;2022-08-04T05:16:06;8.00;;;4.40;;
4980;SDS011;2507;50.392;7.482;2022-08-04T05:18:39;8.50;;;3.93;;
4980;SDS011;2507;50.392;7.482;2022-08-04T05:21:09;8.20;;;4.53;;
4980;SDS011;2507;50.392;7.482;2022-08-04T05:23:40;5.00;;;3.90;;
4980;SDS011;2507;50.392;7.482;2022-08-04T05:26:11;5.30;;;4.20;;
4980;SDS011;2507;50.392;7.482;2022-08-04T05:28:40;4.20;;;3.60;;
4980;SDS011;2507;50.392;7.482;2022-08-04T05:31:17;5.83;;;3.77;;
4980;SDS011;2507;50.392;7.482;2022-08-04T05:34:06;3.83;;;3.50;;
4980;SDS011;2507;50.392;7.482;2022-08-04T05:36:37;6.60;;;4.03;;
4980;SDS011;2507;50.392;7.482;2022-08-04T05:39:13;4.57;;;4.17;;
4980;SDS011;2507;50.392;7.482;2022-08-04T05:41:41;5.03;;;3.63;;
4980;SDS011;2507;50.392;7.482;2022-08-04T05:44:08;5.13;;;3.57;;
4980;SDS011;2507;50.392;7.482;2022-08-04T05:46:34;3.57;;;3.23;;
4980;SDS011;2507;50.392;7.482;2022-08-04T05:49:00;10.57;;;3.50;;
4980;SDS011;2507;50.392;7.482;2022-08-04T05:51:26;11.80;;;4.33;;
4980;SDS011;2507;50.392;7.482;2022-08-04T05:53:54;6.87;;;3.50;;
4980;SDS011;2507;50.392;7.482;2022-08-04T05:56:21;3.70;;;3.40;;
4980;SDS011;2507;50.392;7.482;2022-08-04T05:58:47;7.20;;;4.00;;
4980;SDS011;2507;50.392;7.482;2022-08-04T06:01:14;8.17;;;3.90;;
4980;SDS011;2507;50.392;7.482;2022-08-04T06:03:42;7.93;;;4.40;;
4980;SDS011;2507;50.392;7.482;2022-08-04T06:06:09;8.33;;;4.27;;
4980;SDS011;2507;50.392;7.482;2022-08-04T06:08:36;5.03;;;3.40;;
4980;SDS011;2507;50.392;7.482;2022-08-04T06:11:04;12.53;;;3.77;;
4980;SDS011;2507;50.392;7.482;2022-08-04T06:13:33;7.57;;;3.50;;
4980;SDS011;2507;50.392;7.482;2022-08-04T06:16:04;5.40;;;3.67;;
4980;SDS011;2507;50.392;7.482;2022-08-04T06:18:32;4.70;;;3.33;;
4980;SDS011;2507;50.392;7.482;2022-08-04T06:21:01;5.00;;;3.20;;
4980;SDS011;2507;50.392;7.482;2022-08-04T06:23:29;6.50;;;3.50;;
4980;SDS011;2507;50.392;7.482;2022-08-04T06:25:55;3.37;;;2.67;;
4980;SDS011;2507;50.392;7.482;2022-08-04T06:28:24;3.70;;;3.40;;
4980;SDS011;2507;50.392;7.482;2022-08-04T06:30:51;7.90;;;3.30;;
4980;SDS011;2507;50.392;7.482;2022-08-04T06:33:19;4.63;;;3.07;;
4980;SDS011;2507;50.392;7.482;2022-08-04T06:35:57;8.30;;;3.57;;
4980;SDS011;2507;50.392;7.482;2022-08-04T06:38:25;5.33;;;3.03;;
4980;SDS011;2507;50.392;7.482;2022-08-04T06:40:52;6.60;;;2.80;;
4980;SDS011;2507;50.392;7.482;2022-08-04T06:43:19;5.43;;;3.10;;
4980;SDS011;2507;50.392;7.482;2022-08-04T06:45:46;5.83;;;3.03;;
4980;SDS011;2507;50.392;7.482;2022-08-04T06:48:14;10.03;;;3.47;;
4980;SDS011;2507;50.392;7.482;2022-08-04T06:50:40;18.03;;;4.17;;
4980;SDS011;2507;50.392;7.482;2022-08-04T06:53:09;11.17;;;3.70;;
4980;SDS011;2507;50.392;7.482;2022-08-04T06:55:35;7.80;;;3.23;;
4980;SDS011;2507;50.392;7.482;2022-08-04T06:58:01;6.30;;;3.00;;
4980;SDS011;2507;50.392;7.482;2022-08-04T07:00:27;8.00;;;3.97;;
4980;SDS011;2507;50.392;7.482;2022-08-04T07:02:54;6.57;;;3.47;;
4980;SDS011;2507;50.392;7.482;2022-08-04T07:05:20;9.73;;;2.83;;
4980;SDS011;2507;50.392;7.482;2022-08-04T07:07:46;8.83;;;3.17;;
4980;SDS011;2507;50.392;7.482;2022-08-04T07:10:12;8.70;;;3.30;;
4980;SDS011;2507;50.392;7.482;2022-08-04T07:12:39;9.93;;;3.30;;
4980;SDS011;2507;50.392;7.482;2022-08-04T07:15:06;17.73;;;3.70;;
4980;SDS011;2507;50.392;7.482;2022-08-04T07:17:36;5.53;;;3.13;;
4980;SDS011;2507;50.392;7.482;2022-08-04T07:20:05;11.13;;;2.95;;
4980;SDS011;2507;50.392;7.482;2022-08-04T07:22:31;14.30;;;3.28;;
4980;SDS011;2507;50.392;7.482;2022-08-04T07:24:58;9.13;;;3.67;;
4980;SDS011;2507;50.392;7.482;2022-08-04T07:27:24;9.50;;;3.70;;
4980;SDS011;2507;50.392;7.482;2022-08-04T07:29:50;11.00;;;2.78;;
4980;SDS011;2507;50.392;7.482;2022-08-04T07:32:18;6.07;;;2.40;;
4980;SDS011;2507;50.392;7.482;2022-08-04T07:34:44;11.90;;;2.78;;
4980;SDS011;2507;50.392;7.482;2022-08-04T07:37:13;11.57;;;3.03;;
4980;SDS011;2507;50.392;7.482;2022-08-04T07:39:38;5.10;;;2.78;;
4980;SDS011;2507;50.392;7.482;2022-08-04T07:42:04;8.90;;;2.47;;
4980;SDS011;2507;50.392;7.482;2022-08-04T07:44:30;6.65;;;2.50;;
4980;SDS011;2507;50.392;7.482;2022-08-04T07:46:56;8.50;;;2.47;;
4980;SDS011;2507;50.392;7.482;2022-08-04T07:49:22;6.72;;;2.50;;
4980;SDS011;2507;50.392;7.482;2022-08-04T07:51:50;9.90;;;3.10;;
4980;SDS011;2507;50.392;7.482;2022-08-04T07:54:16;7.25;;;2.47;;
4980;SDS011;2507;50.392;7.482;2022-08-04T07:56:42;5.00;;;2.28;;
4980;SDS011;2507;50.392;7.482;2022-08-04T07:59:07;13.10;;;2.55;;
4980;SDS011;2507;50.392;7.482;2022-08-04T08:01:34;16.42;;;3.33;;
4980;SDS011;2507;50.392;7.482;2022-08-04T08:04:00;8.45;;;2.45;;
4980;SDS011;2507;50.392;7.482;2022-08-04T08:06:29;11.07;;;2.75;;
4980;SDS011;2507;50.392;7.482;2022-08-04T08:08:55;4.80;;;2.40;;
4980;SDS011;2507;50.392;7.482;2022-08-04T08:11:21;9.25;;;3.05;;
4980;SDS011;2507;50.392;7.482;2022-08-04T08:13:47;8.02;;;3.08;;
4980;SDS011;2507;50.392;7.482;2022-08-04T08:16:13;15.00;;;3.05;;
4980;SDS011;2507;50.392;7.482;2022-08-04T08:18:38;9.50;;;2.80;;
4980;SDS011;2507;50.392;7.482;2022-08-04T08:21:04;6.95;;;3.08;;
4980;SDS011;2507;50.392;7.482;2022-08-04T08:23:30;18.60;;;3.47;;
4980;SDS011;2507;50.392;7.482;2022-08-04T08:25:57;15.50;;;3.28;;
4980;SDS011;2507;50.392;7.482;2022-08-04T08:28:23;9.73;;;3.40;;
4980;SDS011;2507;50.392;7.482;2022-08-04T08:30:49;11.73;;;2.72;;
4980;SDS011;2507;50.392;7.482;2022-08-04T08:33:14;15.82;;;2.95;;
4980;SDS011;2507;50.392;7.482;2022-08-04T08:35:43;11.63;;;2.80;;
4980;SDS011;2507;50.392;7.482;2022-08-04T08:38:10;6.10;;;2.92;;
4980;SDS011;2507;50.392;7.482;2022-08-04T08:40:57;12.40;;;2.58;;
4980;SDS011;2507;50.392;7.482;2022-08-04T08:49:00;10.70;;;2.83;;
4980;SDS011;2507;50.392;7.482;2022-08-04T08:51:36;10.07;;;2.55;;
4980;SDS011;2507;50.392;7.482;2022-08-04T08:54:20;7.40;;;2.92;;
4980;SDS011;2507;50.392;7.482;2022-08-04T08:57:07;18.90;;;3.40;;
4980;SDS011;2507;50.392;7.482;2022-08-04T09:00:00;14.68;;;3.38;;
4980;SDS011;2507;50.392;7.482;2022-08-04T09:10:58;12.27;;;3.17;;
4980;SDS011;2507;50.392;7.482;2022-08-04T09:13:44;7.80;;;3.20;;
4980;SDS011;2507;50.392;7.482;2022-08-04T09:22:15;8.63;;;3.10;;
4980;SDS011;2507;50.392;7.482;2022-08-04T09:24:48;7.83;;;3.50;;
4980;SDS011;2507;50.392;7.482;2022-08-04T09:30:03;12.80;;;3.43;;
4980;SDS011;2507;50.392;7.482;2022-08-04T09:37:41;3.10;;;2.77;;
4980;SDS011;2507;50.392;7.482;2022-08-04T09:40:19;9.37;;;2.50;;
4980;SDS011;2507;50.392;7.482;2022-08-04T09:48:44;5.70;;;2.97;;
4980;SDS011;2507;50.392;7.482;2022-08-04T09:51:24;2.80;;;2.67;;
4980;SDS011;2507;50.392;7.482;2022-08-04T09:54:20;2.70;;;2.60;;
4980;SDS011;2507;50.392;7.482;2022-08-04T09:56:55;3.57;;;2.33;;
4980;SDS011;2507;50.392;7.482;2022-08-04T09:59:35;6.93;;;2.47;;
4980;SDS011;2507;50.392;7.482;2022-08-04T10:02:10;9.20;;;2.80;;
4980;SDS011;2507;50.392;7.482;2022-08-04T10:04:38;4.60;;;2.47;;
4980;SDS011;2507;50.392;7.482;2022-08-04T10:10:09;5.47;;;2.50;;
4980;SDS011;2507;50.392;7.482;2022-08-04T10:15:20;3.50;;;2.20;;
4980;SDS011;2507;50.392;7.482;2022-08-04T10:23:48;1.90;;;1.80;;
4980;SDS011;2507;50.392;7.482;2022-08-04T10:29:11;2.93;;;1.73;;
4980;SDS011;2507;50.392;7.482;2022-08-04T10:31:47;1.80;;;1.70;;
4980;SDS011;2507;50.392;7.482;2022-08-04T10:34:25;5.60;;;1.83;;
4980;SDS011;2507;50.392;7.482;2022-08-04T10:37:03;3.40;;;1.80;;
4980;SDS011;2507;50.392;7.482;2022-08-04T10:42:33;2.57;;;2.17;;
4980;SDS011;2507;50.392;7.482;2022-08-04T10:45:13;1.52;;;1.52;;
4980;SDS011;2507;50.392;7.482;2022-08-04T10:47:44;1.40;;;1.40;;
4980;SDS011;2507;50.392;7.482;2022-08-04T10:50:22;2.93;;;2.30;;
4980;SDS011;2507;50.392;7.482;2022-08-04T10:52:54;6.28;;;2.05;;
4980;SDS011;2507;50.392;7.482;2022-08-04T10:55:34;1.93;;;1.70;;
4980;SDS011;2507;50.392;7.482;2022-08-04T10:58:05;1.95;;;1.85;;
4980;SDS011;2507;50.392;7.482;2022-08-04T11:00:34;1.60;;;1.50;;
4980;SDS011;2507;50.392;7.482;2022-08-04T11:05:37;3.92;;;2.00;;
4980;SDS011;2507;50.392;7.482;2022-08-04T11:08:15;6.40;;;2.10;;
4980;SDS011;2507;50.392;7.482;2022-08-04T11:11:09;4.13;;;1.73;;
4980;SDS011;2507;50.392;7.482;2022-08-04T11:16:18;2.00;;;1.30;;
4980;SDS011;2507;50.392;7.482;2022-08-04T11:18:52;4.88;;;1.70;;
4980;SDS011;2507;50.392;7.482;2022-08-04T11:21:31;4.43;;;1.27;;
4980;SDS011;2507;50.392;7.482;2022-08-04T11:24:11;4.83;;;1.17;;
4980;SDS011;2507;50.392;7.482;2022-08-04T11:26:47;3.65;;;1.42;;
4980;SDS011;2507;50.392;7.482;2022-08-04T11:31:49;2.40;;;1.10;;
4980;SDS011;2507;50.392;7.482;2022-08-04T11:37:08;2.05;;;1.13;;
4980;SDS011;2507;50.392;7.482;2022-08-04T11:39:42;2.28;;;1.50;;
4980;SDS011;2507;50.392;7.482;2022-08-04T11:42:21;2.70;;;1.27;;
4980;SDS011;2507;50.392;7.482;2022-08-04T11:44:51;5.05;;;1.25;;
4980;SDS011;2507;50.392;7.482;2022-08-04T11:50:10;1.45;;;0.98;;
4980;SDS011;2507;50.392;7.482;2022-08-04T11:52:39;1.85;;;1.35;;
4980;SDS011;2507;50.392;7.482;2022-08-04T11:55:07;0.93;;;0.93;;
4980;SDS011;2507;50.392;7.482;2022-08-04T11:57:35;3.83;;;1.27;;
4980;SDS011;2507;50.392;7.482;2022-08-04T12:00:03;1.15;;;1.08;;
4980;SDS011;2507;50.392;7.482;2022-08-04T12:05:18;2.05;;;0.80;;
4980;SDS011;2507;50.392;7.482;2022-08-04T12:10:46;0.90;;;0.70;;
4980;SDS011;2507;50.392;7.482;2022-08-04T12:13:45;2.90;;;0.95;;
4980;SDS011;2507;50.392;7.482;2022-08-04T12:16:29;6.88;;;0.98;;
4980;SDS011;2507;50.392;7.482;2022-08-04T12:19:16;4.68;;;1.50;;
4980;SDS011;2507;50.392;7.482;2022-08-04T12:22:05;2.33;;;1.15;;
4980;SDS011;2507;50.392;7.482;2022-08-04T12:24:36;2.55;;;1.17;;
4980;SDS011;2507;50.392;7.482;2022-08-04T12:27:11;3.40;;;1.10;;
4980;SDS011;2507;50.392;7.482;2022-08-04T12:29:40;3.42;;;1.20;;
4980;SDS011;2507;50.392;7.482;2022-08-04T12:32:10;1.23;;;1.10;;
4980;SDS011;2507;50.392;7.482;2022-08-04T12:34:57;4.32;;;0.88;;
4980;SDS011;2507;50.392;7.482;2022-08-04T12:37:40;1.77;;;1.10;;
4980;SDS011;2507;50.392;7.482;2022-08-04T12:40:13;4.78;;;1.98;;
4980;SDS011;2507;50.392;7.482;2022-08-04T12:45:11;4.43;;;1.40;;
4980;SDS011;2507;50.392;7.482;2022-08-04T12:47:38;2.78;;;0.98;;
4980;SDS011;2507;50.392;7.482;2022-08-04T12:50:04;0.85;;;0.85;;
4980;SDS011;2507;50.392;7.482;2022-08-04T12:52:38;6.38;;;1.10;;
4980;SDS011;2507;50.392;7.482;2022-08-04T12:55:06;3.03;;;1.00;;
4980;SDS011;2507;50.392;7.482;2022-08-04T12:57:33;3.75;;;1.42;;
4980;SDS011;2507;50.392;7.482;2022-08-04T12:59:59;3.72;;;1.10;;
4980;SDS011;2507;50.392;7.482;2022-08-04T13:02:26;5.70;;;1.40;;
4980;SDS011;2507;50.392;7.482;2022-08-04T13:05:03;4.10;;;1.05;;
4980;SDS011;2507;50.392;7.482;2022-08-04T13:07:36;1.50;;;1.15;;
4980;SDS011;2507;50.392;7.482;2022-08-04T13:10:05;1.98;;;1.35;;
4980;SDS011;2507;50.392;7.482;2022-08-04T13:12:35;2.67;;;1.27;;
4980;SDS011;2507;50.392;7.482;2022-08-04T13:15:07;6.38;;;1.70;;
4980;SDS011;2507;50.392;7.482;2022-08-04T13:17:50;15.07;;;2.97;;
4980;SDS011;2507;50.392;7.482;2022-08-04T13:20:24;6.78;;;1.48;;
4980;SDS011;2507;50.392;7.482;2022-08-04T13:22:52;12.75;;;3.05;;
4980;SDS011;2507;50.392;7.482;2022-08-04T13:25:32;44.92;;;5.07;;
4980;SDS011;2507;50.392;7.482;2022-08-04T13:28:00;7.50;;;2.20;;
4980;SDS011;2507;50.392;7.482;2022-08-04T13:30:26;1.67;;;0.85;;
4980;SDS011;2507;50.392;7.482;2022-08-04T13:32:55;2.25;;;0.88;;
4980;SDS011;2507;50.392;7.482;2022-08-04T13:35:23;1.52;;;1.20;;
4980;SDS011;2507;50.392;7.482;2022-08-04T13:37:50;9.43;;;1.40;;
4980;SDS011;2507;50.392;7.482;2022-08-04T13:40:19;1.40;;;1.37;;
4980;SDS011;2507;50.392;7.482;2022-08-04T13:42:46;3.75;;;1.00;;
4980;SDS011;2507;50.392;7.482;2022-08-04T13:45:12;3.43;;;1.00;;
4980;SDS011;2507;50.392;7.482;2022-08-04T13:47:38;7.00;;;1.00;;
4980;SDS011;2507;50.392;7.482;2022-08-04T13:53:00;4.13;;;1.37;;
4980;SDS011;2507;50.392;7.482;2022-08-04T13:55:30;1.07;;;1.07;;
4980;SDS011;2507;50.392;7.482;2022-08-04T13:58:08;1.43;;;1.00;;
4980;SDS011;2507;50.392;7.482;2022-08-04T14:00:47;3.27;;;1.10;;
4980;SDS011;2507;50.392;7.482;2022-08-04T14:04:01;1.83;;;1.27;;
4980;SDS011;2507;50.392;7.482;2022-08-04T14:11:12;5.90;;;1.57;;
4980;SDS011;2507;50.392;7.482;2022-08-04T14:13:40;8.60;;;1.43;;
4980;SDS011;2507;50.392;7.482;2022-08-04T14:16:16;7.43;;;1.73;;
4980;SDS011;2507;50.392;7.482;2022-08-04T14:18:43;5.93;;;1.30;;
4980;SDS011;2507;50.392;7.482;2022-08-04T14:21:10;3.93;;;1.80;;
4980;SDS011;2507;50.392;7.482;2022-08-04T14:23:39;2.77;;;1.70;;
4980;SDS011;2507;50.392;7.482;2022-08-04T14:28:47;2.50;;;1.80;;
4980;SDS011;2507;50.392;7.482;2022-08-04T14:31:15;2.73;;;2.03;;
4980;SDS011;2507;50.392;7.482;2022-08-04T14:33:42;9.10;;;2.50;;
4980;SDS011;2507;50.392;7.482;2022-08-04T14:36:09;8.30;;;2.53;;
4980;SDS011;2507;50.392;7.482;2022-08-04T14:38:42;5.33;;;2.00;;
4980;SDS011;2507;50.392;7.482;2022-08-04T14:41:08;8.20;;;1.80;;
4980;SDS011;2507;50.392;7.482;2022-08-04T14:43:47;11.10;;;2.20;;
4980;SDS011;2507;50.392;7.482;2022-08-04T14:46:14;3.27;;;2.20;;
4980;SDS011;2507;50.392;7.482;2022-08-04T14:49:00;6.93;;;2.10;;
4980;SDS011;2507;50.392;7.482;2022-08-04T14:54:10;13.17;;;1.97;;
4980;SDS011;2507;50.392;7.482;2022-08-04T14:56:40;11.30;;;2.40;;
4980;SDS011;2507;50.392;7.482;2022-08-04T14:59:15;7.80;;;2.27;;
4980;SDS011;2507;50.392;7.482;2022-08-04T15:01:40;4.40;;;1.87;;
4980;SDS011;2507;50.392;7.482;2022-08-04T15:04:07;10.70;;;2.17;;
4980;SDS011;2507;50.392;7.482;2022-08-04T15:06:34;2.47;;;2.27;;
4980;SDS011;2507;50.392;7.482;2022-08-04T15:09:04;9.00;;;2.13;;
4980;SDS011;2507;50.392;7.482;2022-08-04T15:11:31;4.43;;;1.90;;
4980;SDS011;2507;50.392;7.482;2022-08-04T15:13:57;4.20;;;1.70;;
4980;SDS011;2507;50.392;7.482;2022-08-04T15:16:24;10.33;;;2.20;;
4980;SDS011;2507;50.392;7.482;2022-08-04T15:18:51;8.63;;;2.20;;
4980;SDS011;2507;50.392;7.482;2022-08-04T15:21:17;10.87;;;2.50;;
4980;SDS011;2507;50.392;7.482;2022-08-04T15:23:45;3.07;;;2.00;;
4980;SDS011;2507;50.392;7.482;2022-08-04T15:26:11;2.83;;;1.90;;
4980;SDS011;2507;50.392;7.482;2022-08-04T15:28:41;1.93;;;1.80;;
4980;SDS011;2507;50.392;7.482;2022-08-04T15:31:12;4.27;;;1.87;;
4980;SDS011;2507;50.392;7.482;2022-08-04T15:33:41;2.17;;;1.63;;
4980;SDS011;2507;50.392;7.482;2022-08-04T15:38:48;4.17;;;2.50;;
4980;SDS011;2507;50.392;7.482;2022-08-04T15:41:30;4.63;;;1.93;;
4980;SDS011;2507;50.392;7.482;2022-08-04T15:44:20;4.67;;;1.97;;
4980;SDS011;2507;50.392;7.482;2022-08-04T15:49:28;1.80;;;1.70;;
4980;SDS011;2507;50.392;7.482;2022-08-04T15:51:58;2.73;;;1.70;;
4980;SDS011;2507;50.392;7.482;2022-08-04T15:54:25;3.07;;;1.80;;
4980;SDS011;2507;50.392;7.482;2022-08-04T15:56:52;4.77;;;1.83;;
4980;SDS011;2507;50.392;7.482;2022-08-04T16:02:28;6.07;;;1.87;;
4980;SDS011;2507;50.392;7.482;2022-08-04T16:07:53;3.73;;;1.80;;
4980;SDS011;2507;50.392;7.482;2022-08-04T16:13:03;4.97;;;2.00;;
4980;SDS011;2507;50.392;7.482;2022-08-04T16:15:35;2.60;;;2.00;;
4980;SDS011;2507;50.392;7.482;2022-08-04T16:18:01;3.37;;;2.13;;
4980;SDS011;2507;50.392;7.482;2022-08-04T16:20:27;2.50;;;1.90;;
4980;SDS011;2507;50.392;7.482;2022-08-04T16:22:54;5.10;;;2.07;;
4980;SDS011;2507;50.392;7.482;2022-08-04T16:25:44;3.33;;;2.03;;
4980;SDS011;2507;50.392;7.482;2022-08-04T16:31:01;5.40;;;2.10;;
4980;SDS011;2507;50.392;7.482;2022-08-04T16:33:29;2.50;;;2.10;;
4980;SDS011;2507;50.392;7.482;2022-08-04T16:35:55;7.07;;;2.40;;
4980;SDS011;2507;50.392;7.482;2022-08-04T16:38:21;5.03;;;1.97;;
4980;SDS011;2507;50.392;7.482;2022-08-04T16:40:53;7.50;;;2.67;;
4980;SDS011;2507;50.392;7.482;2022-08-04T16:43:21;5.40;;;1.90;;
4980;SDS011;2507;50.392;7.482;2022-08-04T16:48:26;5.17;;;2.27;;
4980;SDS011;2507;50.392;7.482;2022-08-04T16:51:04;3.07;;;2.40;;
4980;SDS011;2507;50.392;7.482;2022-08-04T16:53:32;5.57;;;2.33;;
4980;SDS011;2507;50.392;7.482;2022-08-04T16:55:59;5.50;;;1.77;;
4980;SDS011;2507;50.392;7.482;2022-08-04T16:58:29;6.10;;;2.80;;
4980;SDS011;2507;50.392;7.482;2022-08-04T17:01:05;8.27;;;2.10;;
4980;SDS011;2507;50.392;7.482;2022-08-04T17:03:32;4.27;;;2.00;;
4980;SDS011;2507;50.392;7.482;2022-08-04T17:06:04;6.20;;;2.50;;
4980;SDS011;2507;50.392;7.482;2022-08-04T17:08:34;7.10;;;2.70;;
4980;SDS011;2507;50.392;7.482;2022-08-04T17:11:01;9.27;;;2.60;;
4980;SDS011;2507;50.392;7.482;2022-08-04T17:15:55;10.53;;;3.03;;
4980;SDS011;2507;50.392;7.482;2022-08-04T17:18:24;5.07;;;2.50;;
4980;SDS011;2507;50.392;7.482;2022-08-04T17:20:52;14.10;;;2.77;;
4980;SDS011;2507;50.392;7.482;2022-08-04T17:23:34;7.90;;;2.70;;
4980;SDS011;2507;50.392;7.482;2022-08-04T17:26:06;6.70;;;2.83;;
4980;SDS011;2507;50.392;7.482;2022-08-04T17:28:33;3.37;;;2.10;;
4980;SDS011;2507;50.392;7.482;2022-08-04T17:30:59;7.57;;;2.73;;
4980;SDS011;2507;50.392;7.482;2022-08-04T17:33:25;8.37;;;1.90;;
4980;SDS011;2507;50.392;7.482;2022-08-04T17:35:52;4.03;;;2.40;;
4980;SDS011;2507;50.392;7.482;2022-08-04T17:38:20;4.97;;;2.83;;
4980;SDS011;2507;50.392;7.482;2022-08-04T17:40:49;25.60;;;2.83;;
4980;SDS011;2507;50.392;7.482;2022-08-04T17:43:41;3.70;;;2.30;;
4980;SDS011;2507;50.392;7.482;2022-08-04T17:46:25;5.33;;;2.27;;
4980;SDS011;2507;50.392;7.482;2022-08-04T17:54:14;2.67;;;2.37;;
4980;SDS011;2507;50.392;7.482;2022-08-04T17:56:42;3.67;;;2.50;;
4980;SDS011;2507;50.392;7.482;2022-08-04T17:59:08;3.23;;;2.40;;
4980;SDS011;2507;50.392;7.482;2022-08-04T18:01:43;3.77;;;2.40;;
4980;SDS011;2507;50.392;7.482;2022-08-04T18:07:08;2.10;;;1.90;;
4980;SDS011;2507;50.392;7.482;2022-08-04T18:20:09;3.40;;;2.70;;
4980;SDS011;2507;50.392;7.482;2022-08-04T18:22:36;6.23;;;3.00;;
4980;SDS011;2507;50.392;7.482;2022-08-04T18:25:02;5.20;;;2.80;;
4980;SDS011;2507;50.392;7.482;2022-08-04T18:27:28;9.33;;;2.93;;
4980;SDS011;2507;50.392;7.482;2022-08-04T18:29:55;7.60;;;2.73;;
4980;SDS011;2507;50.392;7.482;2022-08-04T18:32:20;2.40;;;1.90;;
4980;SDS011;2507;50.392;7.482;2022-08-04T18:34:56;2.37;;;2.20;;
4980;SDS011;2507;50.392;7.482;2022-08-04T18:37:21;4.73;;;2.30;;
4980;SDS011;2507;50.392;7.482;2022-08-04T18:39:47;3.00;;;2.40;;
4980;SDS011;2507;50.392;7.482;2022-08-04T18:42:13;2.77;;;2.50;;
4980;SDS011;2507;50.392;7.482;2022-08-04T18:44:38;4.20;;;2.60;;
4980;SDS011;2507;50.392;7.482;2022-08-04T18:47:03;2.77;;;2.57;;
4980;SDS011;2507;50.392;7.482;2022-08-04T18:49:30;3.17;;;2.80;;
4980;SDS011;2507;50.392;7.482;2022-08-04T18:51:55;6.43;;;5.43;;
4980;SDS011;2507;50.392;7.482;2022-08-04T18:54:21;7.00;;;2.70;;
4980;SDS011;2507;50.392;7.482;2022-08-04T18:56:49;2.73;;;2.53;;
4980;SDS011;2507;50.392;7.482;2022-08-04T18:59:15;3.37;;;2.93;;
4980;SDS011;2507;50.392;7.482;2022-08-04T19:01:41;3.40;;;3.10;;
4980;SDS011;2507;50.392;7.482;2022-08-04T19:04:06;2.60;;;2.40;;
4980;SDS011;2507;50.392;7.482;2022-08-04T19:06:33;2.47;;;2.30;;
4980;SDS011;2507;50.392;7.482;2022-08-04T19:08:59;3.93;;;2.90;;
4980;SDS011;2507;50.392;7.482;2022-08-04T19:11:24;4.90;;;2.90;;
4980;SDS011;2507;50.392;7.482;2022-08-04T19:13:50;7.17;;;2.80;;
4980;SDS011;2507;50.392;7.482;2022-08-04T19:16:16;3.73;;;2.50;;
4980;SDS011;2507;50.392;7.482;2022-08-04T19:18:42;7.53;;;3.00;;
4980;SDS011;2507;50.392;7.482;2022-08-04T19:21:07;4.00;;;2.80;;
4980;SDS011;2507;50.392;7.482;2022-08-04T19:23:32;3.47;;;3.20;;
4980;SDS011;2507;50.392;7.482;2022-08-04T19:25:58;3.20;;;3.00;;
4980;SDS011;2507;50.392;7.482;2022-08-04T19:28:24;2.90;;;2.20;;
4980;SDS011;2507;50.392;7.482;2022-08-04T19:30:50;3.80;;;3.00;;
4980;SDS011;2507;50.392;7.482;2022-08-04T19:33:15;3.10;;;2.80;;
4980;SDS011;2507;50.392;7.482;2022-08-04T19:35:41;3.73;;;2.90;;
4980;SDS011;2507;50.392;7.482;2022-08-04T19:38:07;4.43;;;2.30;;
4980;SDS011;2507;50.392;7.482;2022-08-04T19:40:34;3.30;;;2.80;;
4980;SDS011;2507;50.392;7.482;2022-08-04T19:43:01;3.50;;;2.77;;
4980;SDS011;2507;50.392;7.482;2022-08-04T19:45:26;3.07;;;2.40;;